createdAt,value
2023-03-11T00:02:19.780Z,0.88
2023-03-11T00:04:46.507Z,0.92
2023-03-11T00:07:13.866Z,0.90
2023-03-11T00:09:40.543Z,0.95
2023-03-11T00:12:07.457Z,0.89
2023-03-11T00:14:34.067Z,0.83
2023-03-11T00:17:00.690Z,0.80
2023-03-11T00:19:27.301Z,0.76
2023-03-11T00:21:53.952Z,0.70
2023-03-11T00:24:20.578Z,0.67
2023-03-11T00:26:47.241Z,0.56
2023-03-11T00:29:13.890Z,0.58
2023-03-11T00:31:41.066Z,0.32
2023-03-11T00:34:08.281Z,0.23
2023-03-11T00:36:34.926Z,0.28
2023-03-11T00:39:02.368Z,0.30
2023-03-11T00:41:29.028Z,0.15
2023-03-11T00:43:55.702Z,0.01
2023-03-11T00:46:23.133Z,0.12
2023-03-11T00:48:52.564Z,0.00
2023-03-11T00:51:19.258Z,-0.03
2023-03-11T00:53:46.088Z,-0.11
2023-03-11T00:56:13.950Z,-0.09
2023-03-11T00:58:41.792Z,-0.04
2023-03-11T01:01:13.062Z,-0.12
2023-03-11T01:03:39.857Z,-0.06
2023-03-11T01:06:06.538Z,-0.11
2023-03-11T01:08:33.224Z,-0.10
2023-03-11T01:10:59.903Z,-0.14
2023-03-11T01:13:27.875Z,-0.15
2023-03-11T01:15:55.872Z,-0.03
2023-03-11T01:18:22.572Z,-0.15
2023-03-11T01:20:49.289Z,-0.19
2023-03-11T01:23:16.515Z,-0.16
2023-03-11T01:25:43.176Z,-0.14
2023-03-11T01:28:09.843Z,-0.15
2023-03-11T01:30:37.813Z,-0.16
2023-03-11T01:33:04.565Z,-0.27
2023-03-11T01:35:31.667Z,-0.26
2023-03-11T01:37:58.370Z,-0.25
2023-03-11T01:40:33.232Z,-0.26
2023-03-11T01:43:04.394Z,-0.30
2023-03-11T01:45:38.737Z,-0.26
2023-03-11T01:48:06.315Z,-0.33
2023-03-11T01:50:40.336Z,-0.24
2023-03-11T01:53:06.959Z,-0.24
2023-03-11T01:55:33.635Z,-0.36
2023-03-11T01:58:01.555Z,-0.39
2023-03-11T02:00:28.193Z,-0.38
2023-03-11T02:02:57.205Z,-0.36
2023-03-11T02:05:24.472Z,-0.32
2023-03-11T02:07:53.183Z,-0.29
2023-03-11T02:10:20.897Z,-0.42
2023-03-11T02:12:48.313Z,-0.54
2023-03-11T02:15:21.722Z,-0.45
2023-03-11T02:17:48.917Z,-0.47
2023-03-11T02:20:55.086Z,-0.49
2023-03-11T02:23:22.901Z,-0.52
2023-03-11T02:26:09.679Z,-0.48
2023-03-11T02:28:36.390Z,-0.53
2023-03-11T02:31:03.258Z,-0.54
2023-03-11T02:33:31.412Z,-0.56
2023-03-11T02:35:58.149Z,-0.54
2023-03-11T02:38:25.408Z,-0.61
2023-03-11T02:40:55.581Z,-0.57
2023-03-11T02:43:37.170Z,-0.59
2023-03-11T02:46:04.671Z,-0.52
2023-03-11T02:48:31.920Z,-0.51
2023-03-11T02:51:00.174Z,-0.56
2023-03-11T02:53:27.813Z,-0.55
2023-03-11T02:55:54.651Z,-0.58
2023-03-11T02:58:21.258Z,-0.53
2023-03-11T03:00:48.050Z,-0.54
2023-03-11T03:03:15.861Z,-0.54
2023-03-11T03:05:42.629Z,-0.60
2023-03-11T03:08:09.642Z,-0.54
2023-03-11T03:10:36.272Z,-0.55
2023-03-11T03:13:03.049Z,-0.53
2023-03-11T03:15:30.374Z,-0.55
2023-03-11T03:17:57.093Z,-0.48
2023-03-11T03:20:23.785Z,-0.52
2023-03-11T03:22:54.374Z,-0.55
2023-03-11T03:25:25.383Z,-0.51
2023-03-11T03:27:53.099Z,-0.51
2023-03-11T03:30:22.601Z,-0.56
2023-03-11T03:32:49.797Z,-0.51
2023-03-11T03:35:17.666Z,-0.55
2023-03-11T03:37:55.876Z,-0.56
2023-03-11T03:40:23.100Z,-0.57
2023-03-11T03:42:51.219Z,-0.59
2023-03-11T03:45:18.011Z,-0.55
2023-03-11T03:47:45.303Z,-0.61
2023-03-11T03:50:12.371Z,-0.55
2023-03-11T03:52:42.553Z,-0.58
2023-03-11T03:55:09.484Z,-0.61
2023-03-11T03:57:37.856Z,-0.61
2023-03-11T04:00:09.113Z,-0.68
2023-03-11T04:02:40.453Z,-0.70
2023-03-11T04:05:12.556Z,-0.65
2023-03-11T04:07:43.532Z,-0.56
2023-03-11T04:10:11.240Z,-0.67
2023-03-11T04:12:37.989Z,-0.66
2023-03-11T04:15:06.710Z,-0.60
2023-03-11T04:17:33.713Z,-0.67
2023-03-11T04:20:01.809Z,-0.67
2023-03-11T04:22:30.413Z,-0.76
2023-03-11T04:24:58.474Z,-0.70
2023-03-11T04:27:25.441Z,-0.78
2023-03-11T04:29:52.835Z,-0.81
2023-03-11T04:32:19.758Z,-0.86
2023-03-11T04:34:46.618Z,-0.89
2023-03-11T04:37:15.163Z,-0.85
2023-03-11T04:39:41.866Z,-0.73
2023-03-11T04:42:08.805Z,-0.83
2023-03-11T04:44:36.718Z,-0.81
2023-03-11T04:47:04.517Z,-0.83
2023-03-11T04:49:31.277Z,-0.86
2023-03-11T04:51:58.135Z,-0.78
2023-03-11T04:54:25.835Z,-0.84
2023-03-11T04:56:52.915Z,-0.91
2023-03-11T04:59:20.309Z,-0.80
2023-03-11T05:01:48.733Z,-0.86
2023-03-11T05:04:16.872Z,-0.88
2023-03-11T05:06:43.569Z,-0.80
2023-03-11T05:09:11.438Z,-0.89
2023-03-11T05:11:40.045Z,-0.78
2023-03-11T05:14:07.016Z,-0.82
2023-03-11T05:16:33.817Z,-0.85
2023-03-11T05:19:00.752Z,-0.82
2023-03-11T05:21:27.378Z,-0.87
2023-03-11T05:23:54.310Z,-0.85
2023-03-11T05:26:20.972Z,-0.92
2023-03-11T05:28:48.134Z,-0.84
2023-03-11T05:31:15.154Z,-0.87
2023-03-11T05:33:42.094Z,-0.87
2023-03-11T05:36:11.809Z,-0.88
2023-03-11T05:38:41.876Z,-0.93
2023-03-11T05:41:08.986Z,-0.93
2023-03-11T05:43:36.328Z,-0.91
2023-03-11T05:46:03.554Z,-0.84
2023-03-11T05:48:30.991Z,-0.94
2023-03-11T05:50:58.033Z,-0.95
2023-03-11T05:53:25.294Z,-0.95
2023-03-11T05:55:59.460Z,-1.02
2023-03-11T05:58:27.927Z,-0.94
2023-03-11T06:00:54.828Z,-1.00
2023-03-11T06:03:21.576Z,-1.04
2023-03-11T06:05:49.505Z,-1.01
2023-03-11T06:08:16.461Z,-0.95
2023-03-11T06:10:48.486Z,-0.86
2023-03-11T06:13:15.948Z,-0.81
2023-03-11T06:15:48.227Z,-0.85
2023-03-11T06:18:15.439Z,-0.87
2023-03-11T06:20:42.169Z,-0.85
2023-03-11T06:23:08.789Z,-0.89
2023-03-11T06:25:35.680Z,-0.87
2023-03-11T06:28:02.529Z,-0.82
2023-03-11T06:30:29.392Z,-0.87
2023-03-11T06:33:09.739Z,-0.95
2023-03-11T06:35:36.742Z,-0.94
2023-03-11T06:38:03.531Z,-0.85
2023-03-11T06:40:30.509Z,-0.89
2023-03-11T06:42:57.179Z,-0.82
2023-03-11T06:45:25.526Z,-0.81
2023-03-11T06:47:52.882Z,-0.83
2023-03-11T06:50:20.692Z,-0.74
2023-03-11T06:52:47.592Z,-0.86
2023-03-11T06:55:14.228Z,-0.78
2023-03-11T06:57:41.300Z,-0.81
2023-03-11T07:00:12.560Z,-0.69
2023-03-11T07:02:42.216Z,-0.56
2023-03-11T07:05:09.352Z,-0.69
2023-03-11T07:07:36.187Z,-0.74
2023-03-11T07:10:03.975Z,-0.66
2023-03-11T07:12:30.573Z,-0.77
2023-03-11T07:14:58.398Z,-0.77
2023-03-11T07:17:25.979Z,-0.68
2023-03-11T07:19:53.220Z,-0.68
2023-03-11T07:22:20.588Z,-0.70
2023-03-11T07:24:48.091Z,-0.63
2023-03-11T07:27:15.234Z,-0.68
2023-03-11T07:29:41.879Z,-0.69
2023-03-11T07:32:08.629Z,-0.68
2023-03-11T07:34:35.397Z,-0.61
2023-03-11T07:37:02.044Z,-0.72
2023-03-11T07:39:28.699Z,-0.62
2023-03-11T07:41:55.351Z,-0.66
2023-03-11T07:44:21.955Z,-0.55
2023-03-11T07:46:48.716Z,-0.57
2023-03-11T07:49:15.345Z,-0.59
2023-03-11T07:51:43.766Z,-0.75
2023-03-11T07:54:10.851Z,-0.61
2023-03-11T07:56:37.496Z,-0.66
2023-03-11T07:59:04.512Z,-0.60
2023-03-11T08:01:36.596Z,-0.66
2023-03-11T08:04:07.670Z,-0.64
2023-03-11T08:06:35.100Z,-0.60
2023-03-11T08:09:04.839Z,-0.62
2023-03-11T08:11:31.847Z,-0.58
2023-03-11T08:13:58.577Z,-0.52
2023-03-11T08:16:25.382Z,-0.37
2023-03-11T08:18:52.376Z,-0.57
2023-03-11T08:21:23.990Z,-0.66
2023-03-11T08:23:50.776Z,-0.46
2023-03-11T08:26:18.849Z,-0.60
2023-03-11T08:28:45.508Z,-0.54
2023-03-11T08:31:16.073Z,-0.61
2023-03-11T08:33:43.799Z,-0.54
2023-03-11T08:36:10.727Z,-0.55
2023-03-11T08:38:37.644Z,-0.43
2023-03-11T08:41:05.055Z,-0.49
2023-03-11T08:43:31.669Z,-0.35
2023-03-11T08:46:00.524Z,-0.42
2023-03-11T08:48:27.210Z,-0.31
2023-03-11T08:50:54.828Z,-0.34
2023-03-11T08:53:22.529Z,-0.53
2023-03-11T08:55:52.716Z,-0.46
2023-03-11T08:58:19.740Z,-0.54
2023-03-11T09:00:46.366Z,-0.53
2023-03-11T09:03:13.535Z,-0.47
2023-03-11T09:05:40.222Z,-0.47
2023-03-11T09:08:07.004Z,-0.39
2023-03-11T09:10:33.843Z,-0.30
2023-03-11T09:13:00.518Z,-0.23
2023-03-11T09:15:27.270Z,-0.48
2023-03-11T09:17:54.430Z,-0.43
2023-03-11T09:20:21.683Z,-0.29
2023-03-11T09:22:48.414Z,-0.40
2023-03-11T09:25:15.098Z,-0.27
2023-03-11T09:27:41.692Z,-0.26
2023-03-11T09:30:09.792Z,-0.27
2023-03-11T09:32:36.464Z,-0.17
2023-03-11T09:35:03.127Z,-0.26
2023-03-11T09:37:30.414Z,-0.04
2023-03-11T09:39:57.028Z,-0.10
2023-03-11T09:42:38.193Z,-0.18
2023-03-11T09:45:11.561Z,-0.34
2023-03-11T09:48:31.977Z,-0.31
2023-03-11T09:51:42.763Z,-0.31
2023-03-11T09:54:10.496Z,-0.08
2023-03-11T09:56:37.133Z,0.02
2023-03-11T09:59:09.062Z,-0.29
2023-03-11T10:01:37.650Z,-0.12
2023-03-11T10:04:28.048Z,-0.08
2023-03-11T10:06:54.710Z,-0.03
2023-03-11T10:09:58.949Z,-0.01
2023-03-11T10:12:41.560Z,-0.22
2023-03-11T10:15:20.012Z,-0.03
2023-03-11T10:18:14.204Z,0.20
2023-03-11T10:20:51.191Z,0.01
2023-03-11T10:23:42.895Z,0.17
2023-03-11T10:26:15.015Z,0.17
2023-03-11T10:29:13.981Z,0.15
2023-03-11T10:31:43.882Z,0.11
2023-03-11T10:34:10.353Z,0.10
2023-03-11T10:36:51.549Z,0.19
2023-03-11T10:39:21.052Z,0.19
2023-03-11T10:41:51.247Z,0.50
2023-03-11T10:44:27.636Z,0.40
2023-03-11T10:46:54.301Z,0.33
2023-03-11T10:49:20.985Z,0.57
2023-03-11T10:51:49.235Z,0.48
2023-03-11T10:54:26.984Z,0.48
2023-03-11T10:57:00.976Z,0.63
2023-03-11T10:59:30.149Z,0.27
2023-03-11T11:02:01.304Z,0.13
2023-03-11T11:04:39.784Z,-0.15
2023-03-11T11:07:29.393Z,-0.30
2023-03-11T11:10:16.099Z,-0.45
2023-03-11T11:13:13.698Z,-0.35
2023-03-11T11:15:41.954Z,-0.19
2023-03-11T11:18:19.904Z,-0.27
2023-03-11T11:21:16.298Z,-0.22
2023-03-11T11:23:50.032Z,-0.22
2023-03-11T11:26:22.020Z,-0.21
2023-03-11T11:29:08.963Z,-0.38
2023-03-11T11:31:40.392Z,-0.38
2023-03-11T11:34:31.986Z,-0.31
2023-03-11T11:36:59.742Z,-0.59
2023-03-11T11:39:27.688Z,-0.50
2023-03-11T11:41:55.317Z,-0.49
2023-03-11T11:44:22.500Z,-0.37
2023-03-11T11:46:55.459Z,-0.41
2023-03-11T11:49:27.506Z,-0.41
2023-03-11T11:52:13.036Z,-0.39
2023-03-11T11:54:59.050Z,-0.39
2023-03-11T11:57:25.658Z,-0.35
2023-03-11T11:59:52.374Z,-0.24
2023-03-11T12:02:44.795Z,-0.08
2023-03-11T12:05:24.023Z,0.21
2023-03-11T12:08:18.662Z,0.47
2023-03-11T12:11:07.359Z,0.30
2023-03-11T12:14:03.206Z,0.04
2023-03-11T12:16:43.291Z,0.14
2023-03-11T12:19:10.360Z,0.06
2023-03-11T12:22:18.716Z,0.18
2023-03-11T12:25:09.218Z,0.11
2023-03-11T12:27:41.747Z,0.06
2023-03-11T12:30:36.916Z,0.25
2023-03-11T12:33:07.093Z,0.19
2023-03-11T12:35:35.482Z,0.30
2023-03-11T12:38:19.004Z,0.55
2023-03-11T12:40:55.073Z,0.41
2023-03-11T12:43:24.648Z,0.41
2023-03-11T12:45:52.155Z,0.49
2023-03-11T12:48:50.231Z,0.75
2023-03-11T12:51:34.215Z,0.56
2023-03-11T12:54:49.182Z,0.48
2023-03-11T12:57:18.810Z,0.59
2023-03-11T13:00:08.269Z,0.69
2023-03-11T13:02:56.796Z,0.45
2023-03-11T13:05:47.190Z,0.54
2023-03-11T13:08:14.758Z,0.53
2023-03-11T13:10:45.728Z,0.59
2023-03-11T13:13:33.800Z,0.53
2023-03-11T13:16:12.790Z,0.60
2023-03-11T13:18:40.523Z,0.51
2023-03-11T13:21:29.947Z,0.62
2023-03-11T13:24:29.852Z,0.60
2023-03-11T13:26:59.682Z,0.48
2023-03-11T13:29:46.772Z,0.48
2023-03-11T13:32:28.529Z,0.78
2023-03-11T13:35:24.138Z,0.56
2023-03-11T13:38:29.271Z,0.56
2023-03-11T13:40:55.904Z,0.47
2023-03-11T13:43:28.791Z,0.46
2023-03-11T13:46:02.336Z,0.44
2023-03-11T13:48:40.984Z,0.43
2023-03-11T13:51:19.517Z,0.47
2023-03-11T13:54:00.011Z,0.50
2023-03-11T13:56:28.490Z,0.56
2023-03-11T13:58:55.305Z,0.55
2023-03-11T14:01:22.059Z,0.39
2023-03-11T14:03:48.791Z,0.49
2023-03-11T14:06:19.863Z,0.63
2023-03-11T14:08:56.392Z,0.74
2023-03-11T14:11:27.372Z,0.87
2023-03-11T14:13:54.125Z,1.03
2023-03-11T14:16:30.573Z,0.82
2023-03-11T14:19:16.652Z,0.80
2023-03-11T14:21:43.947Z,0.78
2023-03-11T14:24:17.546Z,0.58
2023-03-11T14:26:44.309Z,0.71
2023-03-11T14:29:20.924Z,0.42
2023-03-11T14:31:47.766Z,0.59
2023-03-11T14:34:15.470Z,0.68
2023-03-11T14:36:54.475Z,0.87
2023-03-11T14:39:34.981Z,0.90
2023-03-11T14:42:20.529Z,0.90
2023-03-11T14:44:53.759Z,0.66
2023-03-11T14:47:46.670Z,0.56
2023-03-11T14:50:20.780Z,0.91
2023-03-11T14:52:50.768Z,1.03
2023-03-11T14:55:32.171Z,0.83
2023-03-11T14:58:05.147Z,0.76
2023-03-11T15:00:35.619Z,0.70
2023-03-11T15:03:20.679Z,0.97
2023-03-11T15:05:54.656Z,0.95
2023-03-11T15:08:23.068Z,0.99
2023-03-11T15:11:15.194Z,0.79
2023-03-11T15:13:43.170Z,0.75
2023-03-11T15:16:32.500Z,0.87
2023-03-11T15:19:23.746Z,0.89
2023-03-11T15:21:51.502Z,1.02
2023-03-11T15:24:22.489Z,1.11
2023-03-11T15:27:02.472Z,1.12
2023-03-11T15:29:29.644Z,1.21
2023-03-11T15:31:57.326Z,1.30
2023-03-11T15:34:29.185Z,1.26
2023-03-11T15:37:01.911Z,1.27
2023-03-11T15:39:41.385Z,1.09
2023-03-11T15:42:07.964Z,0.69
2023-03-11T15:44:41.761Z,0.95
2023-03-11T15:47:28.707Z,1.07
2023-03-11T15:49:55.327Z,1.01
2023-03-11T15:52:22.028Z,1.01
2023-03-11T15:54:55.441Z,0.90
2023-03-11T15:57:25.297Z,0.77
2023-03-11T15:59:52.142Z,0.88
2023-03-11T16:02:23.807Z,0.87
2023-03-11T16:04:50.945Z,0.80
2023-03-11T16:07:21.800Z,0.79
2023-03-11T16:09:56.091Z,0.91
2023-03-11T16:12:23.065Z,0.91
2023-03-11T16:14:49.923Z,0.90
2023-03-11T16:17:16.674Z,0.71
2023-03-11T16:19:43.325Z,0.94
2023-03-11T16:22:19.492Z,1.05
2023-03-11T16:24:47.189Z,1.01
2023-03-11T16:27:14.754Z,0.94
2023-03-11T16:29:41.610Z,1.06
2023-03-11T16:32:08.872Z,1.18
2023-03-11T16:34:35.482Z,0.81
2023-03-11T16:37:02.198Z,0.93
2023-03-11T16:39:29.050Z,1.10
2023-03-11T16:41:55.882Z,1.12
2023-03-11T16:44:22.531Z,1.08
2023-03-11T16:46:49.223Z,1.15
2023-03-11T16:49:15.836Z,1.07
2023-03-11T16:51:42.470Z,0.90
2023-03-11T16:54:09.087Z,1.11
2023-03-11T16:56:35.778Z,0.99
2023-03-11T16:59:02.644Z,1.05
2023-03-11T17:01:29.294Z,1.11
2023-03-11T17:03:55.917Z,0.94
2023-03-11T17:06:25.468Z,0.89
2023-03-11T17:08:52.210Z,0.88
2023-03-11T17:11:20.521Z,0.62
2023-03-11T17:13:47.159Z,0.79
2023-03-11T17:16:13.847Z,0.91
2023-03-11T17:18:40.466Z,0.99
2023-03-11T17:21:08.200Z,0.82
2023-03-11T17:23:34.864Z,0.89
2023-03-11T17:26:01.810Z,0.91
2023-03-11T17:28:28.514Z,0.82
2023-03-11T17:30:55.112Z,0.90
2023-03-11T17:33:21.762Z,0.97
2023-03-11T17:35:48.402Z,0.84
2023-03-11T17:38:16.589Z,1.05
2023-03-11T17:40:43.354Z,1.01
2023-03-11T17:43:10.099Z,0.97
2023-03-11T17:45:38.675Z,0.93
2023-03-11T17:48:05.437Z,0.86
2023-03-11T17:50:32.051Z,0.88
2023-03-11T17:52:58.770Z,0.92
2023-03-11T17:55:26.291Z,0.90
2023-03-11T17:57:52.946Z,0.71
2023-03-11T18:00:19.988Z,0.56
2023-03-11T18:02:46.873Z,0.62
2023-03-11T18:05:13.539Z,0.67
2023-03-11T18:07:40.191Z,0.54
2023-03-11T18:10:07.163Z,0.56
2023-03-11T18:12:33.847Z,0.50
2023-03-11T18:15:04.180Z,0.44
2023-03-11T18:17:30.931Z,0.12
2023-03-11T18:19:59.533Z,0.35
2023-03-11T18:22:26.727Z,0.45
2023-03-11T18:24:53.602Z,0.50
2023-03-11T18:27:20.222Z,0.01
2023-03-11T18:29:46.806Z,-0.38
2023-03-11T18:32:13.440Z,-0.31
2023-03-11T18:34:40.491Z,-0.40
2023-03-11T18:37:07.224Z,0.02
2023-03-11T18:39:33.843Z,-0.36
2023-03-11T18:42:00.753Z,-0.20
2023-03-11T18:44:27.915Z,-0.26
2023-03-11T18:46:54.795Z,-1.06
2023-03-11T18:49:21.386Z,-0.71
2023-03-11T18:51:48.014Z,-1.08
2023-03-11T18:54:14.661Z,-0.77
2023-03-11T18:56:41.317Z,-0.69
2023-03-11T18:59:10.641Z,-0.65
2023-03-11T19:01:37.310Z,-0.56
2023-03-11T19:04:04.027Z,-1.11
2023-03-11T19:06:30.851Z,-1.19
2023-03-11T19:09:00.555Z,-1.26
2023-03-11T19:11:27.188Z,-1.03
2023-03-11T19:13:54.184Z,-0.82
2023-03-11T19:16:22.460Z,-0.84
2023-03-11T19:18:50.156Z,-0.92
2023-03-11T19:21:17.113Z,-1.03
2023-03-11T19:23:44.622Z,-1.27
2023-03-11T19:26:11.225Z,-1.09
2023-03-11T19:28:37.943Z,-1.39
2023-03-11T19:31:05.213Z,-1.37
2023-03-11T19:33:32.565Z,-1.16
2023-03-11T19:36:00.617Z,-1.39
2023-03-11T19:38:27.685Z,-1.13
2023-03-11T19:41:12.059Z,-1.44
2023-03-11T19:43:38.767Z,-1.50
2023-03-11T19:46:05.822Z,-1.55
2023-03-11T19:48:32.483Z,-1.58
2023-03-11T19:50:59.135Z,-1.75
2023-03-11T19:53:26.406Z,-1.78
2023-03-11T19:55:54.568Z,-1.93
2023-03-11T19:58:21.612Z,-1.94
2023-03-11T20:00:48.263Z,-1.86
2023-03-11T20:03:15.242Z,-1.70
2023-03-11T20:05:43.167Z,-2.19
2023-03-11T20:08:10.402Z,-2.16
2023-03-11T20:10:42.774Z,-2.08
2023-03-11T20:13:09.615Z,-2.33
2023-03-11T20:15:36.428Z,-2.54
2023-03-11T20:18:03.721Z,-2.26
2023-03-11T20:20:30.528Z,-2.17
2023-03-11T20:22:57.248Z,-2.16
2023-03-11T20:25:24.951Z,-1.85
2023-03-11T20:27:52.527Z,-1.64
2023-03-11T20:30:22.089Z,-2.02
2023-03-11T20:32:48.799Z,-2.30
2023-03-11T20:35:15.849Z,-2.17
2023-03-11T20:37:43.267Z,-1.92
2023-03-11T20:40:13.092Z,-2.13
2023-03-11T20:42:40.237Z,-2.14
2023-03-11T20:45:07.400Z,-2.23
2023-03-11T20:47:34.025Z,-2.08
2023-03-11T20:50:00.711Z,-2.39
2023-03-11T20:52:32.358Z,-2.60
2023-03-11T20:54:59.129Z,-2.57
2023-03-11T20:57:26.147Z,-2.84
2023-03-11T20:59:52.762Z,-2.56
2023-03-11T21:02:19.530Z,-2.42
2023-03-11T21:04:47.925Z,-2.48
2023-03-11T21:07:14.596Z,-2.30
2023-03-11T21:09:41.210Z,-2.36
2023-03-11T21:12:08.084Z,-2.49
2023-03-11T21:14:35.450Z,-2.66
2023-03-11T21:17:02.407Z,-2.54
2023-03-11T21:19:29.196Z,-2.50
2023-03-11T21:21:56.112Z,-2.42
2023-03-11T21:24:22.711Z,-2.69
2023-03-11T21:26:49.311Z,-2.86
2023-03-11T21:29:15.915Z,-3.06
2023-03-11T21:31:42.845Z,-3.10
2023-03-11T21:34:10.078Z,-3.07
2023-03-11T21:36:38.024Z,-2.72
2023-03-11T21:39:05.627Z,-2.65
2023-03-11T21:41:32.425Z,-2.34
2023-03-11T21:43:59.093Z,-2.87
2023-03-11T21:46:27.607Z,-2.89
2023-03-11T21:48:54.479Z,-2.90
2023-03-11T21:51:21.178Z,-2.74
2023-03-11T21:53:48.103Z,-2.75
2023-03-11T21:56:14.924Z,-2.84
2023-03-11T21:58:41.787Z,-2.88
2023-03-11T22:01:08.846Z,-3.01
2023-03-11T22:03:36.049Z,-3.31
2023-03-11T22:06:07.029Z,-3.43
2023-03-11T22:08:33.950Z,-3.08
2023-03-11T22:11:00.947Z,-2.98
2023-03-11T22:13:27.893Z,-2.73
2023-03-11T22:15:54.506Z,-2.96
2023-03-11T22:18:21.188Z,-2.68
2023-03-11T22:20:47.791Z,-3.02
2023-03-11T22:23:14.540Z,-3.11
2023-03-11T22:25:41.151Z,-3.30
2023-03-11T22:28:10.483Z,-3.09
2023-03-11T22:30:37.153Z,-3.39
2023-03-11T22:33:03.882Z,-3.21
2023-03-11T22:35:30.572Z,-3.08
2023-03-11T22:37:57.362Z,-3.04
2023-03-11T22:40:23.989Z,-3.01
2023-03-11T22:42:50.625Z,-2.88
2023-03-11T22:45:17.320Z,-3.04
2023-03-11T22:47:43.928Z,-3.54
2023-03-11T22:50:10.877Z,-3.51
2023-03-11T22:52:37.509Z,-3.38
2023-03-11T22:55:04.238Z,-3.30
2023-03-11T22:57:38.477Z,-3.14
2023-03-11T23:00:13.006Z,-3.19
2023-03-11T23:02:39.689Z,-2.90
2023-03-11T23:05:06.816Z,-3.10
2023-03-11T23:07:33.413Z,-3.01
2023-03-11T23:09:59.989Z,-3.46
2023-03-11T23:12:26.584Z,-3.46
2023-03-11T23:14:53.469Z,-3.02
2023-03-11T23:17:20.073Z,-3.13
2023-03-11T23:19:46.768Z,-3.09
2023-03-11T23:22:13.588Z,-3.44
2023-03-11T23:24:40.345Z,-3.37
2023-03-11T23:27:06.974Z,-3.25
2023-03-11T23:29:33.557Z,-3.08
2023-03-11T23:32:00.190Z,-3.33
2023-03-11T23:34:26.847Z,-3.29
2023-03-11T23:36:53.475Z,-3.61
2023-03-11T23:39:20.063Z,-3.63
2023-03-11T23:41:46.679Z,-3.76
2023-03-11T23:44:14.361Z,-3.84
2023-03-11T23:46:41.029Z,-3.90
2023-03-11T23:49:07.602Z,-3.70
2023-03-11T23:51:34.189Z,-3.85
2023-03-11T23:54:00.827Z,-3.93
2023-03-11T23:56:27.426Z,-3.93
2023-03-11T23:58:54.049Z,-3.67
